createdAt,value
2023-04-13T00:00:45.549Z,0.70
2023-04-13T00:03:17.498Z,0.67
2023-04-13T00:05:47.078Z,0.70
2023-04-13T00:08:16.994Z,0.70
2023-04-13T00:10:45.977Z,0.70
2023-04-13T00:13:15.035Z,0.60
2023-04-13T00:15:44.403Z,0.60
2023-04-13T00:18:12.993Z,0.90
2023-04-13T00:20:43.615Z,0.90
2023-04-13T00:23:12.369Z,0.60
2023-04-13T00:25:40.797Z,0.80
2023-04-13T00:28:09.232Z,0.57
2023-04-13T00:30:37.638Z,0.63
2023-04-13T00:33:06.309Z,0.60
2023-04-13T00:35:34.891Z,0.60
2023-04-13T00:38:04.781Z,0.60
2023-04-13T00:40:33.456Z,0.57
2023-04-13T00:43:02.264Z,0.60
2023-04-13T00:45:31.301Z,0.50
2023-04-13T00:48:00.355Z,0.50
2023-04-13T00:50:28.925Z,0.60
2023-04-13T00:52:57.824Z,0.60
2023-04-13T00:55:27.745Z,0.40
2023-04-13T00:57:57.938Z,0.60
2023-04-13T01:00:27.280Z,0.57
2023-04-13T01:02:55.870Z,0.50
2023-04-13T01:05:25.807Z,0.60
2023-04-13T01:08:01.633Z,0.50
2023-04-13T01:10:33.981Z,0.50
2023-04-13T01:13:09.592Z,0.47
2023-04-13T01:15:38.744Z,0.43
2023-04-13T01:18:08.786Z,0.53
2023-04-13T01:20:38.347Z,0.50
2023-04-13T01:23:09.430Z,0.60
2023-04-13T01:25:45.604Z,0.43
2023-04-13T01:28:16.849Z,0.53
2023-04-13T01:30:45.786Z,0.70
2023-04-13T01:33:14.987Z,0.80
2023-04-13T01:35:43.591Z,0.87
2023-04-13T01:38:12.270Z,0.90
2023-04-13T01:40:42.352Z,0.73
2023-04-13T01:43:11.303Z,0.70
2023-04-13T01:45:46.008Z,0.50
2023-04-13T01:48:18.302Z,0.77
2023-04-13T01:50:48.424Z,0.50
2023-04-13T01:53:17.709Z,0.60
2023-04-13T01:55:46.668Z,0.50
2023-04-13T01:58:16.047Z,0.50
2023-04-13T02:00:46.723Z,0.60
2023-04-13T02:03:15.617Z,0.60
2023-04-13T02:05:44.084Z,0.60
2023-04-13T02:08:14.005Z,0.50
2023-04-13T02:10:42.871Z,0.57
2023-04-13T02:13:11.267Z,0.67
2023-04-13T02:15:40.053Z,0.70
2023-04-13T02:18:10.661Z,0.60
2023-04-13T02:20:43.871Z,0.70
2023-04-13T02:23:14.842Z,0.50
2023-04-13T02:25:48.043Z,0.60
2023-04-13T02:28:18.055Z,0.57
2023-04-13T02:30:46.990Z,0.47
2023-04-13T02:33:17.229Z,0.50
2023-04-13T02:35:45.647Z,0.60
2023-04-13T02:38:14.091Z,0.50
2023-04-13T02:40:43.199Z,0.60
2023-04-13T02:43:12.256Z,0.53
2023-04-13T02:45:40.920Z,0.47
2023-04-13T02:48:10.582Z,0.50
2023-04-13T02:50:40.267Z,0.60
2023-04-13T02:53:08.910Z,0.90
2023-04-13T02:55:37.718Z,0.60
2023-04-13T02:58:06.346Z,0.60
2023-04-13T03:00:34.715Z,0.47
2023-04-13T03:03:04.237Z,0.50
2023-04-13T03:05:32.652Z,0.60
2023-04-13T03:08:02.472Z,0.50
2023-04-13T03:10:31.701Z,0.60
2023-04-13T03:13:00.053Z,0.70
2023-04-13T03:15:28.277Z,0.40
2023-04-13T03:17:59.899Z,0.60
2023-04-13T03:20:29.430Z,0.73
2023-04-13T03:22:58.734Z,0.70
2023-04-13T03:25:28.529Z,0.50
2023-04-13T03:27:57.124Z,0.70
2023-04-13T03:30:25.558Z,0.60
2023-04-13T03:32:53.990Z,0.50
2023-04-13T03:35:22.403Z,0.50
2023-04-13T03:37:50.787Z,0.60
2023-04-13T03:40:19.122Z,0.70
2023-04-13T03:42:48.833Z,0.70
2023-04-13T03:45:17.182Z,0.50
2023-04-13T03:47:45.893Z,0.60
2023-04-13T03:50:14.294Z,0.50
2023-04-13T03:52:42.582Z,0.40
2023-04-13T03:55:11.794Z,0.63
2023-04-13T03:57:40.154Z,0.57
2023-04-13T04:00:14.001Z,0.63
2023-04-13T04:02:43.027Z,0.60
2023-04-13T04:05:11.840Z,0.50
2023-04-13T04:07:40.144Z,0.80
2023-04-13T04:10:09.210Z,0.90
2023-04-13T04:12:37.532Z,0.60
2023-04-13T04:15:06.720Z,0.50
2023-04-13T04:17:38.056Z,0.70
2023-04-13T04:20:10.077Z,0.80
2023-04-13T04:22:38.505Z,0.63
2023-04-13T04:25:07.303Z,0.80
2023-04-13T04:27:38.177Z,0.60
2023-04-13T04:30:07.116Z,0.67
2023-04-13T04:32:36.979Z,0.70
2023-04-13T04:35:05.845Z,0.70
2023-04-13T04:37:37.380Z,0.60
2023-04-13T04:40:09.466Z,1.20
2023-04-13T04:42:38.380Z,0.70
2023-04-13T04:45:07.204Z,0.50
2023-04-13T04:47:41.956Z,0.70
2023-04-13T04:50:10.953Z,0.70
2023-04-13T04:52:39.352Z,0.67
2023-04-13T04:55:08.525Z,0.53
2023-04-13T04:57:37.090Z,0.60
2023-04-13T05:00:09.329Z,0.80
2023-04-13T05:02:39.098Z,0.50
2023-04-13T05:05:09.037Z,0.77
2023-04-13T05:07:38.250Z,0.60
2023-04-13T05:10:07.278Z,0.80
2023-04-13T05:12:37.383Z,0.70
2023-04-13T05:15:06.575Z,0.50
2023-04-13T05:17:36.349Z,0.70
2023-04-13T05:20:07.826Z,0.70
2023-04-13T05:22:36.258Z,0.70
2023-04-13T05:25:05.049Z,0.83
2023-04-13T05:27:33.274Z,0.80
2023-04-13T05:30:01.555Z,0.80
2023-04-13T05:32:29.889Z,0.70
2023-04-13T05:34:58.126Z,0.80
2023-04-13T05:37:28.184Z,0.57
2023-04-13T05:39:56.502Z,0.80
2023-04-13T05:42:25.073Z,0.50
2023-04-13T05:44:53.448Z,0.57
2023-04-13T05:47:23.791Z,0.83
2023-04-13T05:49:52.525Z,0.67
2023-04-13T05:52:21.986Z,0.60
2023-04-13T05:54:52.642Z,0.70
2023-04-13T05:57:21.901Z,0.70
2023-04-13T05:59:50.210Z,0.60
2023-04-13T06:02:18.809Z,0.90
2023-04-13T06:04:47.197Z,0.63
2023-04-13T06:07:16.457Z,0.67
2023-04-13T06:09:44.802Z,0.77
2023-04-13T06:12:15.999Z,0.87
2023-04-13T06:14:44.336Z,0.60
2023-04-13T06:17:12.666Z,0.50
2023-04-13T06:19:41.008Z,0.70
2023-04-13T06:22:09.298Z,0.70
2023-04-13T06:24:38.009Z,0.70
2023-04-13T06:27:06.276Z,1.00
2023-04-13T06:29:36.542Z,0.80
2023-04-13T06:32:06.654Z,0.67
2023-04-13T06:34:35.534Z,0.80
2023-04-13T06:37:04.186Z,0.70
2023-04-13T06:39:37.554Z,0.80
2023-04-13T06:42:06.396Z,0.73
2023-04-13T06:44:36.253Z,0.70
2023-04-13T06:47:05.822Z,0.83
2023-04-13T06:49:34.553Z,0.77
2023-04-13T06:52:02.847Z,0.90
2023-04-13T06:54:31.517Z,0.80
2023-04-13T06:57:02.050Z,0.80
2023-04-13T06:59:30.334Z,0.73
2023-04-13T07:02:00.242Z,0.80
2023-04-13T07:04:30.768Z,1.00
2023-04-13T07:07:00.649Z,0.80
2023-04-13T07:09:29.150Z,1.00
2023-04-13T07:11:58.009Z,0.80
2023-04-13T07:14:27.522Z,1.00
2023-04-13T07:16:55.878Z,0.80
2023-04-13T07:19:26.149Z,0.70
2023-04-13T07:21:54.480Z,0.80
2023-04-13T08:51:29.685Z,1.20
2023-04-13T08:53:57.968Z,0.90
2023-04-13T08:56:34.409Z,0.87
2023-04-13T08:59:12.000Z,0.90
2023-04-13T09:01:40.939Z,0.80
2023-04-13T09:04:10.526Z,0.63
2023-04-13T09:06:42.619Z,0.80
2023-04-13T09:09:13.824Z,1.20
2023-04-13T09:11:42.876Z,0.80
2023-04-13T09:14:11.487Z,0.93
2023-04-13T09:16:41.116Z,0.90
2023-04-13T09:19:09.861Z,0.90
2023-04-13T09:21:38.623Z,1.10
2023-04-13T09:24:09.317Z,0.70
2023-04-13T09:26:44.402Z,0.90
2023-04-13T09:29:16.411Z,0.80
2023-04-13T09:31:45.896Z,1.00
2023-04-13T09:34:14.457Z,0.90
2023-04-13T09:36:54.136Z,0.90
2023-04-13T09:39:29.135Z,0.90
2023-04-13T09:41:58.378Z,1.00
2023-04-13T09:44:28.613Z,1.00
2023-04-13T09:47:00.077Z,0.80
2023-04-13T09:49:28.660Z,0.80
2023-04-13T09:51:57.380Z,1.00
2023-04-13T09:54:25.746Z,0.80
2023-04-13T09:56:57.164Z,0.87
2023-04-13T09:59:27.282Z,0.90
2023-04-13T10:01:56.397Z,0.87
2023-04-13T10:04:24.987Z,1.20
2023-04-13T10:06:53.473Z,0.90
2023-04-13T10:09:21.999Z,1.00
2023-04-13T10:11:52.077Z,0.50
2023-04-13T10:14:23.903Z,0.80
2023-04-13T10:17:13.336Z,0.63
2023-04-13T10:19:43.511Z,1.00
2023-04-13T10:22:12.469Z,1.00
2023-04-13T10:24:41.192Z,1.23
2023-04-13T10:27:13.231Z,0.83
2023-04-13T10:29:43.092Z,0.90
2023-04-13T10:32:21.538Z,1.00
2023-04-13T10:34:50.078Z,0.90
2023-04-13T10:37:19.688Z,0.80
2023-04-13T10:39:48.358Z,0.80
2023-04-13T10:42:18.054Z,0.73
2023-04-13T10:44:49.249Z,0.70
2023-04-13T10:47:18.436Z,0.93
2023-04-13T10:49:47.702Z,1.00
2023-04-13T10:52:16.380Z,1.30
2023-04-13T10:54:45.396Z,0.80
2023-04-13T10:57:14.995Z,0.70
2023-04-13T11:02:17.902Z,0.80
2023-04-13T11:04:47.687Z,1.10
2023-04-13T11:07:16.974Z,1.20
2023-04-13T11:09:47.190Z,1.37
2023-04-13T11:12:17.351Z,1.90
2023-04-13T11:14:49.212Z,1.80
2023-04-13T11:17:19.835Z,1.20
2023-04-13T11:19:50.629Z,1.10
2023-04-13T11:22:19.127Z,1.03
2023-04-13T11:24:48.229Z,1.00
2023-04-13T11:27:20.227Z,0.90
2023-04-13T11:29:48.737Z,1.33
2023-04-13T11:32:21.586Z,1.00
2023-04-13T11:34:50.625Z,0.90
2023-04-13T11:37:19.429Z,1.07
2023-04-13T11:39:47.969Z,1.13
2023-04-13T11:42:16.751Z,0.97
2023-04-13T11:44:46.339Z,1.07
2023-04-13T11:47:15.919Z,1.20
2023-04-13T11:49:47.991Z,1.20
2023-04-13T11:52:17.447Z,1.27
2023-04-13T11:54:45.902Z,1.13
2023-04-13T11:57:14.483Z,1.20
2023-04-13T11:59:42.864Z,1.23
2023-04-13T12:02:20.774Z,1.10
2023-04-13T12:04:52.882Z,0.70
2023-04-13T12:07:22.156Z,1.17
2023-04-13T12:09:56.785Z,0.90
2023-04-13T12:15:15.479Z,1.17
2023-04-13T12:17:58.077Z,1.00
2023-04-13T12:20:38.996Z,1.07
2023-04-13T12:23:22.838Z,1.07
2023-04-13T12:25:58.694Z,0.90
2023-04-13T12:28:32.934Z,1.10
2023-04-13T12:31:06.537Z,1.03
2023-04-13T12:33:34.952Z,1.00
2023-04-13T12:36:06.438Z,1.33
2023-04-13T12:38:35.273Z,0.90
2023-04-13T12:41:03.877Z,1.37
2023-04-13T12:43:32.290Z,1.13
2023-04-13T12:46:00.862Z,0.90
2023-04-13T12:48:30.324Z,0.80
2023-04-13T12:50:58.566Z,0.73
2023-04-13T12:53:28.267Z,0.97
2023-04-13T12:55:56.621Z,1.20
2023-04-13T12:58:24.882Z,0.83
2023-04-13T13:00:53.180Z,1.10
2023-04-13T13:03:21.698Z,1.10
2023-04-13T13:05:50.057Z,1.00
2023-04-13T13:08:18.685Z,1.10
2023-04-13T13:10:48.514Z,0.93
2023-04-13T13:13:17.417Z,1.23
2023-04-13T13:15:45.786Z,0.90
2023-04-13T13:18:14.467Z,0.90
2023-04-13T13:20:42.746Z,1.20
2023-04-13T13:23:11.822Z,1.10
2023-04-13T13:25:42.374Z,0.93
2023-04-13T13:28:16.097Z,0.90
2023-04-13T13:30:44.531Z,1.40
2023-04-13T13:33:12.996Z,0.93
2023-04-13T13:35:41.725Z,1.23
2023-04-13T13:38:10.200Z,1.57
2023-04-13T13:40:38.534Z,1.27
2023-04-13T13:43:06.971Z,0.90
2023-04-13T13:45:36.690Z,0.90
2023-04-13T13:48:05.145Z,1.27
2023-04-13T13:50:33.530Z,1.10
2023-04-13T13:53:04.367Z,1.10
2023-04-13T13:55:33.239Z,1.30
2023-04-13T13:58:01.588Z,1.23
2023-04-13T14:00:29.949Z,1.33
2023-04-13T14:03:00.016Z,1.00
2023-04-13T14:05:28.469Z,1.10
2023-04-13T14:07:56.738Z,1.23
2023-04-13T14:10:25.066Z,1.10
2023-04-13T14:12:55.386Z,0.80
2023-04-13T14:15:23.809Z,1.20
2023-04-13T14:18:06.587Z,1.17
2023-04-13T14:20:40.612Z,1.00
2023-04-13T14:23:10.013Z,1.20
2023-04-13T14:25:41.170Z,1.27
2023-04-13T14:28:11.018Z,1.47
2023-04-13T14:30:39.361Z,1.10
2023-04-13T14:33:08.385Z,1.40
2023-04-13T14:35:38.717Z,2.60
2023-04-13T14:38:09.794Z,1.20
2023-04-13T14:40:38.083Z,1.13
2023-04-13T14:43:06.774Z,1.47
2023-04-13T14:45:35.368Z,1.20
2023-04-13T14:48:03.838Z,1.47
2023-04-13T14:50:32.392Z,1.50
2023-04-13T14:53:03.643Z,1.30
2023-04-13T14:55:33.441Z,1.00
2023-04-13T14:58:03.400Z,1.77
2023-04-13T15:00:39.654Z,1.13
2023-04-13T15:03:08.688Z,1.30
2023-04-13T15:05:38.599Z,1.20
2023-04-13T15:08:07.490Z,1.40
2023-04-13T15:10:37.173Z,0.90
2023-04-13T15:13:07.142Z,1.30
2023-04-13T15:15:36.839Z,1.10
2023-04-13T15:18:05.862Z,1.30
2023-04-13T15:20:34.408Z,1.20
2023-04-13T15:23:02.729Z,1.43
2023-04-13T15:25:31.234Z,1.30
2023-04-13T15:28:01.190Z,1.20
2023-04-13T15:30:30.279Z,1.10
2023-04-13T15:32:59.395Z,1.10
2023-04-13T15:35:28.133Z,1.50
2023-04-13T15:37:56.903Z,1.10
2023-04-13T15:40:26.153Z,1.60
2023-04-13T15:42:54.581Z,1.57
2023-04-13T15:45:24.271Z,1.37
2023-04-13T15:47:52.712Z,1.30
2023-04-13T15:50:21.312Z,1.40
2023-04-13T15:52:49.612Z,1.43
2023-04-13T15:55:18.015Z,1.93
2023-04-13T15:57:46.334Z,1.57
2023-04-13T16:00:15.076Z,1.30
2023-04-13T16:02:44.739Z,1.30
2023-04-13T16:05:13.149Z,1.53
2023-04-13T16:07:41.708Z,1.47
2023-04-13T16:10:16.086Z,1.17
2023-04-13T16:12:45.470Z,1.83
2023-04-13T16:15:14.588Z,1.63
2023-04-13T16:17:44.799Z,1.47
2023-04-13T16:20:22.218Z,1.73
2023-04-13T16:22:53.254Z,1.63
2023-04-13T16:25:21.600Z,1.30
2023-04-13T16:27:49.976Z,1.20
2023-04-13T16:30:20.742Z,1.20
2023-04-13T16:32:49.893Z,1.10
2023-04-13T16:35:19.766Z,1.43
2023-04-13T16:37:48.095Z,1.37
2023-04-13T16:40:16.677Z,1.37
2023-04-13T16:42:45.016Z,1.27
2023-04-13T16:45:14.989Z,1.37
2023-04-13T16:47:43.830Z,1.30
2023-04-13T16:50:13.214Z,1.30
2023-04-13T16:52:43.018Z,1.90
2023-04-13T16:55:13.991Z,1.00
2023-04-13T16:57:42.803Z,1.43
2023-04-13T17:00:11.818Z,1.60
2023-04-13T17:02:40.943Z,2.20
2023-04-13T17:05:09.976Z,1.33
2023-04-13T17:07:38.559Z,2.23
2023-04-13T17:10:09.252Z,1.20
2023-04-13T17:12:37.768Z,1.53
2023-04-13T17:15:06.441Z,1.43
2023-04-13T17:17:36.117Z,1.53
2023-04-13T17:20:04.959Z,1.70
2023-04-13T17:22:33.277Z,1.80
2023-04-13T17:25:01.630Z,1.23
2023-04-13T17:27:31.271Z,1.37
2023-04-13T17:29:59.590Z,1.40
2023-04-13T17:32:27.987Z,1.57
2023-04-13T17:34:57.290Z,1.53
2023-04-13T17:37:25.660Z,1.33
2023-04-13T17:39:54.014Z,1.40
2023-04-13T17:42:22.947Z,1.30
2023-04-13T17:44:52.672Z,1.40
2023-04-13T17:47:21.094Z,1.20
2023-04-13T17:49:49.393Z,1.63
2023-04-13T17:52:17.709Z,1.77
2023-04-13T17:54:46.049Z,1.50
2023-04-13T17:57:14.377Z,1.47
2023-04-13T17:59:42.693Z,1.10
2023-04-13T18:02:12.435Z,1.10
2023-04-13T18:04:40.903Z,1.40
2023-04-13T18:07:09.250Z,1.67
2023-04-13T18:09:37.629Z,1.87
2023-04-13T18:12:06.137Z,1.40
2023-04-13T18:14:34.528Z,1.47
2023-04-13T18:17:02.805Z,1.87
2023-04-13T18:19:32.844Z,2.03
2023-04-13T18:22:01.181Z,1.70
2023-04-13T18:24:29.528Z,2.40
2023-04-13T18:26:57.860Z,2.27
2023-04-13T18:29:26.230Z,1.60
2023-04-13T18:31:54.527Z,1.70
2023-04-13T18:34:22.868Z,1.70
2023-04-13T18:36:52.468Z,1.80
2023-04-13T18:39:20.845Z,2.40
2023-04-13T18:41:49.146Z,1.47
2023-04-13T18:44:17.580Z,1.57
2023-04-13T18:46:45.951Z,1.60
2023-04-13T18:49:14.470Z,1.70
2023-04-13T18:51:43.271Z,1.53
2023-04-13T18:54:12.926Z,1.37
2023-04-13T18:56:41.270Z,1.40
2023-04-13T18:59:09.666Z,1.93
2023-04-13T19:01:38.272Z,1.33
2023-04-13T19:04:06.896Z,1.63
2023-04-13T19:06:36.317Z,1.70
2023-04-13T19:09:05.564Z,2.17
2023-04-13T19:11:48.544Z,1.83
2023-04-13T19:14:16.902Z,1.50
2023-04-13T19:16:45.707Z,1.40
2023-04-13T19:19:15.559Z,1.53
2023-04-13T19:21:43.910Z,1.50
2023-04-13T19:24:13.274Z,1.63
2023-04-13T19:26:41.767Z,1.40
2023-04-13T19:29:13.165Z,1.93
2023-04-13T19:31:43.190Z,1.57
2023-04-13T19:34:12.182Z,1.50
2023-04-13T19:36:41.083Z,2.60
2023-04-13T19:39:10.095Z,2.90
2023-04-13T19:41:39.273Z,1.80
2023-04-13T19:44:08.822Z,2.07
2023-04-13T19:46:38.883Z,1.80
2023-04-13T19:49:07.910Z,1.60
2023-04-13T19:51:36.729Z,1.70
2023-04-13T19:54:06.066Z,1.80
2023-04-13T19:56:35.785Z,1.50
2023-04-13T19:59:05.471Z,1.80
2023-04-13T20:01:34.279Z,1.77
2023-04-13T20:04:05.437Z,1.47
2023-04-13T20:06:34.275Z,1.90
2023-04-13T20:09:09.371Z,1.57
2023-04-13T20:11:37.724Z,1.57
2023-04-13T20:14:06.202Z,1.80
2023-04-13T20:16:35.590Z,1.70
2023-04-13T20:19:06.859Z,1.87
2023-04-13T20:21:35.300Z,1.60
2023-04-13T20:24:04.474Z,1.80
2023-04-13T20:26:33.420Z,2.27
2023-04-13T20:29:04.016Z,1.70
2023-04-13T20:31:32.914Z,1.90
2023-04-13T20:34:03.150Z,2.00
2023-04-13T20:36:32.920Z,2.30
2023-04-13T20:39:01.292Z,1.93
2023-04-13T20:41:32.083Z,1.60
2023-04-13T20:44:01.244Z,2.03
2023-04-13T20:46:34.752Z,2.27
2023-04-13T20:49:04.385Z,1.80
2023-04-13T20:51:34.158Z,1.70
2023-04-13T20:54:05.655Z,1.60
2023-04-13T20:56:34.317Z,1.67
2023-04-13T20:59:03.310Z,1.70
2023-04-13T21:01:31.897Z,2.27
2023-04-13T21:04:00.747Z,1.53
2023-04-13T21:06:30.068Z,2.27
2023-04-13T21:08:59.870Z,1.93
2023-04-13T21:11:28.316Z,2.47
2023-04-13T21:13:56.808Z,1.67
2023-04-13T21:16:26.923Z,1.87
2023-04-13T21:18:55.961Z,1.80
2023-04-13T21:21:25.250Z,2.07
2023-04-13T21:23:54.637Z,1.97
2023-04-13T21:26:24.314Z,1.77
2023-04-13T21:28:52.650Z,2.10
2023-04-13T21:31:21.020Z,1.90
2023-04-13T21:33:50.162Z,2.20
2023-04-13T21:38:49.889Z,2.00
2023-04-13T21:41:18.660Z,2.10
2023-04-13T21:43:48.646Z,1.80
2023-04-13T21:46:17.713Z,1.70
2023-04-13T21:48:46.087Z,1.60
2023-04-13T21:51:14.432Z,1.30
2023-04-13T21:53:42.775Z,1.87
2023-04-13T21:56:11.149Z,1.57
2023-04-13T21:58:40.289Z,1.30
2023-04-13T22:01:10.087Z,1.47
2023-04-13T22:03:38.956Z,2.17
2023-04-13T22:06:08.641Z,1.43
2023-04-13T22:08:36.921Z,1.63
2023-04-13T22:11:05.682Z,1.70
2023-04-13T22:13:34.148Z,1.77
2023-04-13T22:16:02.490Z,1.53
2023-04-13T22:18:32.362Z,1.70
2023-04-13T22:21:00.848Z,1.70
2023-04-13T22:23:29.183Z,1.97
2023-04-13T22:25:58.962Z,1.63
2023-04-13T22:28:27.520Z,1.83
2023-04-13T22:30:56.048Z,1.80
2023-04-13T22:33:24.430Z,1.70
2023-04-13T22:35:54.112Z,1.80
2023-04-13T22:38:22.414Z,1.77
2023-04-13T22:40:50.823Z,1.80
2023-04-13T22:43:19.200Z,1.43
2023-04-13T22:45:47.575Z,2.23
2023-04-13T22:48:15.946Z,2.87
2023-04-13T22:50:44.290Z,1.60
2023-04-13T22:53:14.006Z,1.73
2023-04-13T22:55:42.340Z,2.00
2023-04-13T22:58:10.720Z,1.60
2023-04-13T23:00:39.062Z,1.80
2023-04-13T23:03:07.625Z,1.60
2023-04-13T23:05:36.367Z,1.97
2023-04-13T23:08:04.875Z,2.20
2023-04-13T23:10:34.638Z,1.90
2023-04-13T23:13:04.121Z,1.70
2023-04-13T23:15:32.499Z,1.53
2023-04-13T23:18:02.615Z,1.77
2023-04-13T23:20:31.192Z,1.20
2023-04-13T23:22:59.448Z,1.77
2023-04-13T23:25:27.760Z,1.40
2023-04-13T23:27:57.362Z,1.40
2023-04-13T23:30:25.668Z,1.30
2023-04-13T23:32:54.036Z,1.37
2023-04-13T23:35:22.478Z,1.80
2023-04-13T23:37:50.978Z,1.50
2023-04-13T23:40:19.403Z,1.60
2023-04-13T23:42:47.682Z,1.67
2023-04-13T23:45:17.380Z,1.70
2023-04-13T23:47:45.885Z,1.20
2023-04-13T23:50:17.842Z,1.70
2023-04-13T23:52:46.282Z,1.53
2023-04-13T23:55:14.746Z,1.50
2023-04-13T23:57:43.126Z,1.30
